Time;durP1;ratioP1;P1;durP2;ratioP2;P2;SDS_P1;SDS_P2;PMS_P1;PMS_P2;Temp;Humidity;BMP_temperature;BMP_pressure;BME280_temperature;BME280_humidity;BME280_pressure;Samples;Min_cycle;Max_cycle;Signal;HPM_P1;HPM_P2
2023/03/17 00:01:53;;;;;;;3.77;2.43;;;;;;;;;;5064690;28;20254;-51
2023/03/17 00:04:19;;;;;;;5.33;3.40;;;;;;;;;;5065943;28;20314;-52
2023/03/17 00:06:47;;;;;;;4.20;3.00;;;;;;;;;;5067726;28;20629;-52
2023/03/17 00:09:14;;;;;;;3.17;2.87;;;;;;;;;;5064924;28;20233;-51
2023/03/17 00:11:40;;;;;;;4.27;3.20;;;;;;;;;;5064305;28;20259;-52
2023/03/17 00:14:07;;;;;;;3.73;2.97;;;;;;;;;;5065971;28;20241;-53
2023/03/17 00:16:36;;;;;;;4.23;3.07;;;;;;;;;;5060472;28;20224;-52
2023/03/17 00:19:03;;;;;;;4.07;2.70;;;;;;;;;;5066424;28;20333;-52
2023/03/17 00:21:30;;;;;;;7.33;3.70;;;;;;;;;;5064957;28;20585;-52
2023/03/17 00:23:59;;;;;;;4.23;3.60;;;;;;;;;;5066166;28;20325;-52
2023/03/17 00:26:25;;;;;;;4.87;3.50;;;;;;;;;;5064122;28;20235;-52
2023/03/17 00:28:53;;;;;;;4.23;2.93;;;;;;;;;;5069204;28;20748;-52
2023/03/17 00:31:21;;;;;;;5.37;3.17;;;;;;;;;;5064654;28;20233;-52
2023/03/17 00:33:48;;;;;;;4.83;3.50;;;;;;;;;;5064280;28;20652;-52
2023/03/17 00:36:16;;;;;;;4.87;3.50;;;;;;;;;;5065544;28;20689;-52
2023/03/17 00:38:43;;;;;;;5.90;3.47;;;;;;;;;;5066056;28;20292;-51
2023/03/17 00:41:14;;;;;;;5.57;4.03;;;;;;;;;;5066154;28;20250;-52
2023/03/17 00:43:41;;;;;;;4.27;3.53;;;;;;;;;;5065874;28;20774;-52
2023/03/17 00:46:11;;;;;;;6.27;4.33;;;;;;;;;;5061495;28;20236;-52
2023/03/17 00:48:38;;;;;;;4.30;3.57;;;;;;;;;;5059680;28;20231;-52
2023/03/17 00:51:06;;;;;;;5.07;3.33;;;;;;;;;;5060476;28;20235;-52
2023/03/17 00:53:33;;;;;;;4.37;3.30;;;;;;;;;;5059159;28;20266;-52
2023/03/17 00:55:59;;;;;;;4.13;3.70;;;;;;;;;;5060625;28;20238;-52
2023/03/17 00:58:28;;;;;;;3.47;3.03;;;;;;;;;;5054053;28;20246;-52
2023/03/17 01:00:55;;;;;;;4.50;3.37;;;;;;;;;;5056778;28;20231;-51
2023/03/17 01:03:21;;;;;;;3.50;2.93;;;;;;;;;;5060690;28;20234;-51
2023/03/17 01:05:48;;;;;;;4.50;4.10;;;;;;;;;;5061738;28;20730;-52
2023/03/17 01:08:15;;;;;;;3.97;3.37;;;;;;;;;;5060081;28;20310;-52
2023/03/17 01:10:42;;;;;;;5.47;4.30;;;;;;;;;;5060664;28;20227;-52
2023/03/17 01:13:11;;;;;;;4.43;3.97;;;;;;;;;;5059690;28;22284;-53
2023/03/17 01:15:41;;;;;;;4.57;4.17;;;;;;;;;;5073866;28;20231;-53
2023/03/17 01:18:10;;;;;;;4.40;3.17;;;;;;;;;;5066560;28;20450;-53
2023/03/17 01:20:37;;;;;;;7.73;4.40;;;;;;;;;;5069019;28;20224;-55
2023/03/17 01:23:04;;;;;;;6.03;4.20;;;;;;;;;;5066942;28;20242;-53
2023/03/17 01:25:31;;;;;;;5.90;4.63;;;;;;;;;;5070287;28;20591;-52
2023/03/17 01:27:59;;;;;;;5.80;3.90;;;;;;;;;;5076335;28;20334;-51
2023/03/17 01:30:27;;;;;;;5.90;4.40;;;;;;;;;;5072449;28;20239;-52
2023/03/17 01:32:55;;;;;;;5.20;3.23;;;;;;;;;;5069973;28;20239;-52
2023/03/17 01:35:23;;;;;;;6.87;3.43;;;;;;;;;;5059248;28;20811;-52
2023/03/17 01:37:50;;;;;;;11.33;4.67;;;;;;;;;;5059645;28;20231;-52
2023/03/17 01:40:18;;;;;;;4.30;3.80;;;;;;;;;;5064207;28;20309;-52
2023/03/17 01:42:47;;;;;;;5.83;3.50;;;;;;;;;;5061601;28;20240;-52
2023/03/17 01:45:28;;;;;;;6.40;4.33;;;;;;;;;;5058970;28;20223;-52
2023/03/17 01:47:56;;;;;;;8.67;4.47;;;;;;;;;;5052994;28;20777;-52
2023/03/17 01:50:23;;;;;;;8.87;4.50;;;;;;;;;;5063811;28;20249;-52
2023/03/17 01:52:50;;;;;;;8.47;4.17;;;;;;;;;;5057797;28;20239;-52
2023/03/17 01:55:17;;;;;;;6.33;4.13;;;;;;;;;;5063833;28;20423;-52
2023/03/17 01:57:45;;;;;;;6.10;3.70;;;;;;;;;;5066673;28;20223;-51
2023/03/17 02:00:14;;;;;;;5.93;4.37;;;;;;;;;;5068356;28;20227;-52
2023/03/17 02:02:42;;;;;;;11.37;4.10;;;;;;;;;;5068922;28;20231;-52
2023/03/17 02:05:12;;;;;;;6.23;4.57;;;;;;;;;;5069064;28;20235;-57
2023/03/17 02:07:39;;;;;;;5.20;4.60;;;;;;;;;;5065140;28;20270;-57
2023/03/17 02:10:07;;;;;;;8.60;3.63;;;;;;;;;;5069752;28;20782;-52
2023/03/17 02:12:34;;;;;;;6.53;3.97;;;;;;;;;;5070951;28;20317;-52
2023/03/17 02:15:00;;;;;;;6.43;3.70;;;;;;;;;;5074995;28;20254;-54
2023/03/17 02:17:27;;;;;;;4.33;3.83;;;;;;;;;;5071037;28;20238;-52
2023/03/17 02:19:54;;;;;;;9.63;4.73;;;;;;;;;;5072170;28;20256;-52
2023/03/17 02:22:22;;;;;;;7.50;4.40;;;;;;;;;;5070287;28;20235;-52
2023/03/17 02:24:52;;;;;;;9.23;3.83;;;;;;;;;;5074680;28;20329;-53
2023/03/17 02:27:20;;;;;;;6.13;4.97;;;;;;;;;;5074268;28;20235;-51
2023/03/17 02:29:47;;;;;;;6.93;4.57;;;;;;;;;;5074236;28;20234;-51
2023/03/17 02:32:14;;;;;;;5.93;4.70;;;;;;;;;;5069214;28;20233;-51
2023/03/17 02:34:41;;;;;;;6.10;4.63;;;;;;;;;;5069638;28;20227;-59
2023/03/17 02:37:08;;;;;;;6.97;4.47;;;;;;;;;;5069329;28;20298;-55
2023/03/17 02:39:36;;;;;;;8.80;5.03;;;;;;;;;;5071892;28;20279;-56
2023/03/17 02:42:03;;;;;;;6.73;5.27;;;;;;;;;;5071519;28;20231;-53
2023/03/17 02:44:30;;;;;;;6.90;4.67;;;;;;;;;;5071400;28;20238;-53
2023/03/17 02:46:57;;;;;;;6.33;5.13;;;;;;;;;;5066448;28;20238;-52
2023/03/17 02:49:23;;;;;;;8.97;4.70;;;;;;;;;;5062018;28;20223;-52
2023/03/17 02:51:50;;;;;;;6.90;4.87;;;;;;;;;;5070951;28;20273;-53
2023/03/17 02:54:17;;;;;;;6.23;4.60;;;;;;;;;;5072400;28;20231;-54
2023/03/17 02:56:45;;;;;;;6.53;5.33;;;;;;;;;;5060608;28;20227;-51
2023/03/17 02:59:11;;;;;;;9.07;4.70;;;;;;;;;;5067254;28;20235;-56
2023/03/17 03:01:38;;;;;;;8.60;5.23;;;;;;;;;;5062004;28;20246;-58
2023/03/17 03:04:05;;;;;;;8.17;4.53;;;;;;;;;;5070209;28;20235;-51
2023/03/17 03:06:32;;;;;;;7.03;4.33;;;;;;;;;;5069839;28;20237;-53
2023/03/17 03:08:59;;;;;;;6.97;5.10;;;;;;;;;;5069835;28;20231;-52
2023/03/17 03:11:26;;;;;;;6.63;4.97;;;;;;;;;;5068925;28;20226;-55
2023/03/17 03:13:54;;;;;;;7.93;4.60;;;;;;;;;;5069198;28;20306;-52
2023/03/17 03:16:21;;;;;;;8.47;5.10;;;;;;;;;;5072513;28;20233;-52
2023/03/17 03:18:48;;;;;;;6.63;4.37;;;;;;;;;;5070622;28;20242;-59
2023/03/17 03:21:14;;;;;;;7.93;4.80;;;;;;;;;;5065660;28;20274;-52
2023/03/17 03:23:42;;;;;;;7.07;4.50;;;;;;;;;;5068489;28;20769;-53
2023/03/17 03:26:08;;;;;;;6.60;4.60;;;;;;;;;;5066952;28;20234;-54
2023/03/17 03:28:35;;;;;;;6.10;4.03;;;;;;;;;;5077120;28;20234;-52
2023/03/17 03:31:03;;;;;;;6.63;4.40;;;;;;;;;;5068171;28;20748;-53
2023/03/17 03:33:30;;;;;;;10.63;5.53;;;;;;;;;;5070332;28;20239;-53
2023/03/17 03:35:56;;;;;;;8.37;4.30;;;;;;;;;;5068653;28;20246;-52
2023/03/17 03:38:23;;;;;;;9.27;4.97;;;;;;;;;;5068755;28;20301;-52
2023/03/17 03:40:49;;;;;;;9.07;5.00;;;;;;;;;;5061055;28;20235;-52
2023/03/17 03:43:16;;;;;;;10.20;5.53;;;;;;;;;;5067653;28;20399;-52
2023/03/17 03:45:43;;;;;;;8.10;4.33;;;;;;;;;;5062774;28;20224;-53
2023/03/17 03:48:11;;;;;;;6.90;4.43;;;;;;;;;;5066385;28;20258;-51
2023/03/17 03:50:37;;;;;;;9.50;5.03;;;;;;;;;;5063890;28;20234;-53
2023/03/17 03:53:04;;;;;;;5.60;4.70;;;;;;;;;;5065898;28;20235;-52
2023/03/17 03:55:31;;;;;;;5.57;4.40;;;;;;;;;;5061671;28;20235;-53
2023/03/17 03:57:57;;;;;;;6.87;4.73;;;;;;;;;;5064903;28;20250;-52
2023/03/17 04:00:24;;;;;;;9.27;5.07;;;;;;;;;;5063837;27;20716;-52
2023/03/17 04:02:51;;;;;;;7.27;4.77;;;;;;;;;;5062960;28;20757;-55
2023/03/17 04:05:19;;;;;;;7.17;4.50;;;;;;;;;;5064248;28;20244;-51
2023/03/17 04:07:46;;;;;;;7.07;4.77;;;;;;;;;;5062165;28;20240;-53
2023/03/17 04:10:14;;;;;;;7.63;4.53;;;;;;;;;;5059716;28;20253;-52
2023/03/17 04:12:40;;;;;;;5.93;4.50;;;;;;;;;;5061431;28;20347;-52
2023/03/17 04:15:10;;;;;;;8.20;5.00;;;;;;;;;;5064109;28;20709;-52
2023/03/17 04:17:36;;;;;;;6.23;4.83;;;;;;;;;;5067695;28;20243;-53
2023/03/17 04:20:03;;;;;;;5.93;5.33;;;;;;;;;;5067213;28;20222;-59
2023/03/17 04:22:31;;;;;;;6.93;4.90;;;;;;;;;;5065298;28;20630;-55
2023/03/17 04:24:58;;;;;;;7.27;4.93;;;;;;;;;;5070618;28;26352;-52
2023/03/17 04:27:24;;;;;;;7.30;5.47;;;;;;;;;;5072617;28;20763;-52
2023/03/17 04:29:51;;;;;;;5.57;4.37;;;;;;;;;;5075504;28;20235;-52
2023/03/17 04:32:18;;;;;;;8.03;4.93;;;;;;;;;;5075631;28;20238;-53
2023/03/17 04:34:44;;;;;;;9.00;5.00;;;;;;;;;;5077183;28;20226;-53
2023/03/17 04:37:11;;;;;;;5.03;4.23;;;;;;;;;;5078000;28;20231;-53
2023/03/17 04:39:39;;;;;;;4.63;4.00;;;;;;;;;;5078572;28;20238;-52
2023/03/17 04:42:06;;;;;;;6.10;4.30;;;;;;;;;;5078948;28;20231;-52
2023/03/17 04:44:32;;;;;;;7.67;4.43;;;;;;;;;;5080403;28;20227;-52
2023/03/17 04:46:59;;;;;;;11.33;4.67;;;;;;;;;;5076381;28;20235;-53
2023/03/17 04:49:26;;;;;;;6.00;4.30;;;;;;;;;;5073055;28;20331;-52
2023/03/17 04:51:52;;;;;;;5.47;4.23;;;;;;;;;;5076316;28;20254;-52
2023/03/17 04:54:19;;;;;;;7.90;4.53;;;;;;;;;;5080517;28;20727;-52
2023/03/17 04:56:47;;;;;;;6.40;4.63;;;;;;;;;;5080024;28;20241;-53
2023/03/17 04:59:13;;;;;;;7.90;4.17;;;;;;;;;;5079248;28;20255;-52
2023/03/17 05:01:40;;;;;;;6.73;4.90;;;;;;;;;;5077564;28;20235;-52
2023/03/17 05:04:07;;;;;;;4.77;4.00;;;;;;;;;;5080839;28;20268;-52
2023/03/17 05:06:34;;;;;;;4.57;3.97;;;;;;;;;;5081289;28;20239;-52
2023/03/17 05:09:01;;;;;;;7.60;4.33;;;;;;;;;;5080225;28;20669;-52
2023/03/17 05:11:27;;;;;;;4.53;4.13;;;;;;;;;;5079001;28;20234;-51
2023/03/17 05:13:55;;;;;;;9.10;4.57;;;;;;;;;;5078182;28;20235;-52
2023/03/17 05:16:22;;;;;;;6.43;4.10;;;;;;;;;;5079304;28;20308;-51
2023/03/17 05:18:48;;;;;;;7.83;4.50;;;;;;;;;;5083102;28;20221;-52
2023/03/17 05:21:15;;;;;;;5.00;3.97;;;;;;;;;;5081179;28;20292;-52
2023/03/17 05:23:41;;;;;;;6.33;3.93;;;;;;;;;;5082482;28;20238;-52
2023/03/17 05:26:09;;;;;;;7.37;4.53;;;;;;;;;;5083564;28;20259;-51
2023/03/17 05:28:35;;;;;;;4.40;3.70;;;;;;;;;;5081002;28;20291;-52
2023/03/17 05:31:04;;;;;;;7.00;4.07;;;;;;;;;;5082267;28;20238;-51
2023/03/17 05:33:30;;;;;;;6.90;4.27;;;;;;;;;;5080253;28;20253;-52
2023/03/17 05:35:57;;;;;;;5.87;4.00;;;;;;;;;;5074817;28;20316;-52
2023/03/17 05:38:23;;;;;;;6.10;4.13;;;;;;;;;;5067038;28;20238;-52
2023/03/17 05:40:51;;;;;;;6.03;4.40;;;;;;;;;;5065729;28;20317;-51
2023/03/17 05:43:17;;;;;;;4.40;3.60;;;;;;;;;;5066726;28;20246;-52
2023/03/17 05:45:46;;;;;;;4.47;3.40;;;;;;;;;;5065765;28;20235;-52
2023/03/17 05:48:14;;;;;;;6.17;3.60;;;;;;;;;;5066472;28;20318;-52
2023/03/17 05:50:41;;;;;;;5.00;3.67;;;;;;;;;;5063489;28;20227;-52
2023/03/17 05:53:07;;;;;;;6.07;5.27;;;;;;;;;;5066161;28;20255;-50
2023/03/17 05:55:34;;;;;;;6.07;4.17;;;;;;;;;;5066122;28;20316;-52
2023/03/17 05:58:03;;;;;;;7.20;4.30;;;;;;;;;;5061151;28;20235;-52
2023/03/17 06:00:30;;;;;;;5.90;3.73;;;;;;;;;;5064380;28;25925;-52
2023/03/17 06:02:56;;;;;;;5.63;3.80;;;;;;;;;;5065742;28;20269;-52
2023/03/17 06:05:24;;;;;;;8.40;4.00;;;;;;;;;;5067075;28;20245;-52
2023/03/17 06:07:51;;;;;;;4.67;3.77;;;;;;;;;;5064360;28;20224;-52
2023/03/17 06:10:17;;;;;;;8.20;4.20;;;;;;;;;;5065139;28;20526;-52
2023/03/17 06:12:44;;;;;;;5.43;4.00;;;;;;;;;;5066040;28;20659;-51
2023/03/17 06:15:10;;;;;;;4.30;3.90;;;;;;;;;;5065669;28;20230;-52
2023/03/17 06:17:37;;;;;;;4.03;3.20;;;;;;;;;;5063288;28;20234;-52
2023/03/17 06:20:04;;;;;;;4.43;3.50;;;;;;;;;;5066391;28;20235;-51
2023/03/17 06:22:32;;;;;;;5.83;3.53;;;;;;;;;;5064068;28;20778;-51
2023/03/17 06:24:59;;;;;;;3.63;3.23;;;;;;;;;;5058704;28;20224;-52
2023/03/17 06:27:26;;;;;;;5.07;3.33;;;;;;;;;;5060652;28;20230;-52
2023/03/17 06:29:53;;;;;;;6.33;4.07;;;;;;;;;;5064345;28;20323;-52
2023/03/17 06:32:19;;;;;;;5.57;3.47;;;;;;;;;;5065204;28;20587;-52
2023/03/17 06:34:46;;;;;;;4.30;3.87;;;;;;;;;;5064535;28;20810;-53
2023/03/17 06:37:12;;;;;;;7.60;4.33;;;;;;;;;;5060304;28;20278;-52
2023/03/17 06:39:41;;;;;;;5.97;3.87;;;;;;;;;;5065443;28;20719;-51
2023/03/17 06:42:07;;;;;;;6.67;3.73;;;;;;;;;;5067308;28;20243;-53
2023/03/17 06:44:35;;;;;;;4.47;3.90;;;;;;;;;;5065205;28;20294;-52
2023/03/17 06:47:01;;;;;;;4.50;3.57;;;;;;;;;;5067440;28;20243;-52
2023/03/17 06:49:28;;;;;;;9.10;3.83;;;;;;;;;;5064244;28;20609;-56
2023/03/17 06:51:54;;;;;;;7.07;4.07;;;;;;;;;;5067653;28;20231;-52
2023/03/17 06:54:23;;;;;;;3.93;3.50;;;;;;;;;;5065333;28;20242;-53
2023/03/17 06:56:51;;;;;;;5.13;3.50;;;;;;;;;;5065792;28;20288;-53
2023/03/17 06:59:17;;;;;;;9.93;3.97;;;;;;;;;;5063290;28;20271;-51
2023/03/17 07:01:45;;;;;;;7.40;3.97;;;;;;;;;;5064784;28;20251;-52
2023/03/17 07:04:11;;;;;;;6.67;3.83;;;;;;;;;;5063405;28;20243;-52
2023/03/17 07:06:38;;;;;;;7.90;4.03;;;;;;;;;;5065435;28;20255;-52
2023/03/17 07:09:06;;;;;;;5.27;3.70;;;;;;;;;;5064717;28;20618;-51
2023/03/17 07:11:32;;;;;;;8.00;4.40;;;;;;;;;;5063656;28;20239;-53
2023/03/17 07:14:01;;;;;;;6.07;3.97;;;;;;;;;;5062316;28;20232;-52
2023/03/17 07:16:28;;;;;;;7.13;3.50;;;;;;;;;;5062682;28;20777;-52
2023/03/17 07:18:54;;;;;;;5.87;4.13;;;;;;;;;;5064270;28;20619;-51
2023/03/17 07:21:21;;;;;;;4.67;3.77;;;;;;;;;;5056676;28;20228;-52
2023/03/17 07:23:47;;;;;;;5.73;4.17;;;;;;;;;;5063553;27;20235;-52
2023/03/17 07:26:14;;;;;;;6.10;3.77;;;;;;;;;;5063662;28;20341;-51
2023/03/17 07:28:40;;;;;;;5.50;4.10;;;;;;;;;;5062796;28;20647;-53
2023/03/17 07:31:12;;;;;;;7.80;3.97;;;;;;;;;;5067435;28;20282;-52
2023/03/17 07:33:39;;;;;;;6.97;4.77;;;;;;;;;;5062075;28;20250;-52
2023/03/17 07:36:07;;;;;;;6.30;4.37;;;;;;;;;;5063490;28;20254;-52
2023/03/17 07:38:35;;;;;;;4.43;3.80;;;;;;;;;;5062912;28;20227;-52
2023/03/17 07:41:02;;;;;;;5.37;3.67;;;;;;;;;;5059233;28;20327;-53
2023/03/17 07:43:29;;;;;;;10.93;4.00;;;;;;;;;;5064101;28;20326;-51
2023/03/17 07:45:55;;;;;;;4.47;4.07;;;;;;;;;;5061714;28;20255;-51
2023/03/17 07:48:23;;;;;;;5.57;3.70;;;;;;;;;;5060904;28;20262;-50
2023/03/17 07:50:50;;;;;;;4.10;3.60;;;;;;;;;;5062934;28;20258;-51
2023/03/17 07:53:17;;;;;;;5.60;4.17;;;;;;;;;;5062226;28;20254;-51
2023/03/17 07:55:43;;;;;;;5.20;3.60;;;;;;;;;;5048469;28;20238;-51
2023/03/17 07:58:10;;;;;;;5.20;4.23;;;;;;;;;;5060318;28;20255;-51
2023/03/17 08:00:37;;;;;;;5.73;3.73;;;;;;;;;;5062193;28;20255;-51
2023/03/17 08:03:03;;;;;;;5.93;4.10;;;;;;;;;;5055467;28;20713;-51
2023/03/17 08:05:31;;;;;;;10.30;4.83;;;;;;;;;;5060905;28;20265;-53
2023/03/17 08:07:58;;;;;;;5.10;4.50;;;;;;;;;;5060031;28;20321;-52
2023/03/17 08:10:25;;;;;;;6.70;3.67;;;;;;;;;;5063252;28;20223;-52
2023/03/17 08:12:52;;;;;;;5.40;4.10;;;;;;;;;;5061291;28;20242;-51
2023/03/17 08:15:20;;;;;;;5.73;4.37;;;;;;;;;;5060567;28;20235;-52
2023/03/17 08:17:47;;;;;;;7.50;3.80;;;;;;;;;;5061404;28;20234;-51
2023/03/17 08:20:14;;;;;;;5.43;4.23;;;;;;;;;;5061064;28;20243;-53
2023/03/17 08:22:42;;;;;;;5.00;3.70;;;;;;;;;;5061501;28;20231;-52
2023/03/17 08:25:10;;;;;;;6.33;4.03;;;;;;;;;;5059665;28;20277;-52
2023/03/17 08:27:37;;;;;;;6.53;3.60;;;;;;;;;;5057915;28;20231;-51
2023/03/17 08:30:04;;;;;;;7.60;3.87;;;;;;;;;;5059899;28;20238;-52
2023/03/17 08:32:31;;;;;;;5.23;3.83;;;;;;;;;;5061627;28;20250;-52
2023/03/17 08:34:57;;;;;;;4.70;3.63;;;;;;;;;;5068314;28;20235;-52
2023/03/17 08:37:24;;;;;;;7.27;3.67;;;;;;;;;;5067295;28;20231;-51
2023/03/17 08:39:51;;;;;;;5.37;4.07;;;;;;;;;;5063960;28;20331;-53
2023/03/17 08:42:18;;;;;;;6.80;3.97;;;;;;;;;;5050197;28;20227;-52
2023/03/17 08:44:44;;;;;;;6.07;3.93;;;;;;;;;;5061405;28;20235;-53
2023/03/17 08:47:11;;;;;;;5.13;4.33;;;;;;;;;;5065253;28;20241;-53
2023/03/17 08:49:37;;;;;;;8.30;4.10;;;;;;;;;;5063895;28;20226;-51
2023/03/17 08:52:04;;;;;;;5.30;3.73;;;;;;;;;;5064929;28;20231;-53
2023/03/17 08:54:31;;;;;;;4.00;3.27;;;;;;;;;;5066726;28;20235;-52
2023/03/17 08:57:00;;;;;;;4.43;3.97;;;;;;;;;;5064784;28;20339;-51
2023/03/17 08:59:27;;;;;;;6.30;4.27;;;;;;;;;;5063980;28;20757;-51
2023/03/17 09:01:54;;;;;;;3.83;3.40;;;;;;;;;;5061597;28;20974;-53
2023/03/17 09:04:22;;;;;;;5.07;3.60;;;;;;;;;;5063554;28;20222;-52
2023/03/17 09:06:49;;;;;;;10.07;4.23;;;;;;;;;;5059676;28;20710;-52
2023/03/17 09:09:16;;;;;;;4.60;3.43;;;;;;;;;;5063071;28;20288;-56
2023/03/17 09:11:42;;;;;;;6.37;4.23;;;;;;;;;;5062928;28;20234;-53
2023/03/17 09:14:10;;;;;;;5.37;3.37;;;;;;;;;;5065080;28;20294;-52
2023/03/17 09:16:37;;;;;;;4.07;3.70;;;;;;;;;;5065025;28;20717;-53
2023/03/17 09:19:04;;;;;;;7.90;4.10;;;;;;;;;;5064678;28;20309;-53
2023/03/17 09:21:30;;;;;;;6.13;3.50;;;;;;;;;;5063818;28;21330;-52
2023/03/17 09:23:57;;;;;;;5.67;3.47;;;;;;;;;;5065015;28;20227;-52
2023/03/17 09:26:25;;;;;;;4.30;3.70;;;;;;;;;;5062267;28;20226;-52
2023/03/17 09:28:51;;;;;;;8.33;4.37;;;;;;;;;;5057258;28;20288;-51
2023/03/17 09:31:20;;;;;;;5.77;3.43;;;;;;;;;;5062487;28;20246;-52
2023/03/17 09:33:46;;;;;;;4.37;3.93;;;;;;;;;;5065209;28;20227;-51
2023/03/17 09:36:13;;;;;;;4.50;3.80;;;;;;;;;;5059810;28;20230;-52
2023/03/17 09:38:40;;;;;;;5.50;3.33;;;;;;;;;;5067575;28;20238;-53
2023/03/17 09:41:18;;;;;;;5.20;4.13;;;;;;;;;;5066632;28;20761;-53
2023/03/17 09:43:48;;;;;;;5.20;3.60;;;;;;;;;;5058288;28;20299;-52
2023/03/17 09:46:21;;;;;;;5.40;3.87;;;;;;;;;;5062813;28;20456;-51
2023/03/17 09:48:54;;;;;;;7.60;4.87;;;;;;;;;;5062829;28;20235;-53
2023/03/17 09:51:21;;;;;;;5.23;3.30;;;;;;;;;;5065302;28;20265;-53
2023/03/17 09:53:50;;;;;;;7.50;3.37;;;;;;;;;;5065881;28;20800;-52
2023/03/17 09:56:18;;;;;;;6.00;3.47;;;;;;;;;;5066670;28;20227;-53
2023/03/17 09:58:48;;;;;;;5.10;3.37;;;;;;;;;;5056154;28;20227;-52
2023/03/17 10:01:15;;;;;;;3.77;3.30;;;;;;;;;;5060683;28;20338;-51
2023/03/17 10:03:41;;;;;;;5.80;3.30;;;;;;;;;;5071723;28;20259;-59
2023/03/17 10:06:15;;;;;;;5.53;3.83;;;;;;;;;;5069208;28;20294;-51
2023/03/17 10:08:46;;;;;;;3.90;3.50;;;;;;;;;;5069976;28;20243;-53
2023/03/17 10:11:14;;;;;;;3.97;3.13;;;;;;;;;;5075778;28;20242;-51
2023/03/17 10:13:47;;;;;;;4.47;3.63;;;;;;;;;;5072445;28;20290;-52
2023/03/17 10:16:14;;;;;;;6.43;3.27;;;;;;;;;;5073594;28;20276;-51
2023/03/17 10:18:43;;;;;;;3.57;3.27;;;;;;;;;;5069511;28;20237;-53
2023/03/17 10:21:11;;;;;;;4.63;3.10;;;;;;;;;;5066303;28;20709;-53
2023/03/17 10:23:39;;;;;;;3.77;3.43;;;;;;;;;;5076487;28;20235;-55
2023/03/17 10:26:08;;;;;;;3.83;3.00;;;;;;;;;;5069592;28;20242;-54
2023/03/17 10:28:37;;;;;;;7.83;3.80;;;;;;;;;;5074881;28;20285;-53
2023/03/17 10:31:13;;;;;;;5.23;3.30;;;;;;;;;;5078268;28;20245;-52
2023/03/17 10:33:39;;;;;;;4.87;3.33;;;;;;;;;;5074627;28;20306;-52
2023/03/17 10:36:09;;;;;;;4.40;2.93;;;;;;;;;;5072364;28;20281;-52
2023/03/17 10:38:36;;;;;;;3.40;2.77;;;;;;;;;;5073507;28;20621;-53
2023/03/17 10:41:08;;;;;;;3.97;3.57;;;;;;;;;;5075587;28;20314;-52
2023/03/17 10:43:36;;;;;;;4.10;2.90;;;;;;;;;;5078343;28;20232;-51
2023/03/17 10:46:04;;;;;;;3.63;3.20;;;;;;;;;;5076409;28;20327;-53
2023/03/17 10:48:31;;;;;;;4.23;3.20;;;;;;;;;;5076216;28;20250;-52
2023/03/17 10:50:58;;;;;;;4.23;3.10;;;;;;;;;;5073661;28;20295;-52
2023/03/17 10:53:30;;;;;;;7.10;3.20;;;;;;;;;;5075104;28;20323;-52
2023/03/17 10:55:58;;;;;;;4.90;2.53;;;;;;;;;;5067772;28;20241;-54
2023/03/17 10:58:32;;;;;;;4.33;3.60;;;;;;;;;;5064357;28;20242;-52
2023/03/17 11:01:02;;;;;;;5.67;3.07;;;;;;;;;;5059553;28;20426;-53
2023/03/17 11:03:32;;;;;;;4.03;3.27;;;;;;;;;;5069118;28;20227;-52
2023/03/17 11:06:01;;;;;;;4.23;3.03;;;;;;;;;;5060695;28;20345;-51
2023/03/17 11:08:30;;;;;;;4.03;3.07;;;;;;;;;;5058371;28;20219;-51
2023/03/17 11:10:57;;;;;;;3.97;3.27;;;;;;;;;;5060169;28;20249;-52
2023/03/17 11:13:30;;;;;;;5.10;2.93;;;;;;;;;;5063911;28;20239;-51
2023/03/17 11:16:02;;;;;;;4.20;3.17;;;;;;;;;;5064905;28;20260;-52
2023/03/17 11:18:34;;;;;;;5.33;2.90;;;;;;;;;;5059613;28;20228;-55
2023/03/17 11:21:02;;;;;;;8.17;3.00;;;;;;;;;;5063544;28;20238;-52
2023/03/17 11:23:45;;;;;;;3.47;3.17;;;;;;;;;;5059900;28;20593;-52
2023/03/17 11:26:18;;;;;;;3.20;2.67;;;;;;;;;;5058882;28;20291;-52
2023/03/17 11:28:49;;;;;;;5.07;3.10;;;;;;;;;;5057124;28;20218;-52
2023/03/17 11:31:19;;;;;;;4.68;3.15;;;;;;;;;;5054586;28;20235;-53
2023/03/17 11:33:50;;;;;;;4.53;3.07;;;;;;;;;;5070626;28;20606;-52
2023/03/17 11:36:24;;;;;;;5.07;3.27;;;;;;;;;;5062800;28;21444;-51
2023/03/17 11:38:56;;;;;;;5.60;2.88;;;;;;;;;;5063576;28;20256;-52
2023/03/17 11:41:30;;;;;;;2.85;2.58;;;;;;;;;;5058515;28;20266;-51
2023/03/17 11:44:05;;;;;;;7.38;2.90;;;;;;;;;;5064142;28;20238;-53
2023/03/17 11:46:34;;;;;;;4.50;2.92;;;;;;;;;;5061478;28;20297;-52
2023/03/17 11:49:05;;;;;;;5.22;2.88;;;;;;;;;;5058088;28;20273;-52
2023/03/17 11:51:36;;;;;;;3.42;2.83;;;;;;;;;;5064719;28;20281;-52
2023/03/17 11:54:14;;;;;;;5.60;3.47;;;;;;;;;;5059885;28;20405;-52
2023/03/17 11:56:45;;;;;;;2.67;2.22;;;;;;;;;;5062297;28;20324;-53
2023/03/17 11:59:17;;;;;;;3.83;2.80;;;;;;;;;;5058412;28;21039;-52
2023/03/17 12:01:48;;;;;;;4.00;3.28;;;;;;;;;;5056365;28;20650;-52
2023/03/17 12:04:18;;;;;;;4.53;2.95;;;;;;;;;;5065828;28;20231;-51
2023/03/17 12:06:46;;;;;;;3.50;2.78;;;;;;;;;;5066823;28;20230;-52
2023/03/17 12:09:17;;;;;;;4.55;2.75;;;;;;;;;;5065122;28;20234;-53
2023/03/17 12:11:45;;;;;;;3.97;3.00;;;;;;;;;;5064776;28;20233;-52
2023/03/17 12:14:28;;;;;;;4.72;2.75;;;;;;;;;;5058286;28;20310;-51
2023/03/17 12:17:00;;;;;;;2.60;2.22;;;;;;;;;;5067753;28;20694;-51
2023/03/17 12:19:30;;;;;;;6.70;3.10;;;;;;;;;;5068667;28;20254;-53
2023/03/17 12:21:58;;;;;;;5.05;2.92;;;;;;;;;;5067231;28;20240;-52
2023/03/17 12:24:27;;;;;;;3.53;2.33;;;;;;;;;;5072621;28;20283;-51
2023/03/17 12:26:55;;;;;;;4.63;2.90;;;;;;;;;;5074469;28;20257;-52
2023/03/17 12:29:27;;;;;;;2.80;2.53;;;;;;;;;;5069986;28;20292;-51
2023/03/17 12:31:57;;;;;;;4.82;2.63;;;;;;;;;;5066773;28;20739;-52
2023/03/17 12:34:25;;;;;;;3.28;2.50;;;;;;;;;;5063398;28;20770;-53
2023/03/17 12:36:55;;;;;;;2.45;2.13;;;;;;;;;;5060679;28;20245;-53
2023/03/17 12:39:24;;;;;;;6.80;2.70;;;;;;;;;;5062054;28;20326;-52
2023/03/17 12:42:05;;;;;;;3.92;2.78;;;;;;;;;;5063089;28;20326;-52
2023/03/17 12:44:40;;;;;;;5.47;2.75;;;;;;;;;;5061381;28;20331;-51
2023/03/17 12:47:13;;;;;;;5.28;2.95;;;;;;;;;;5063090;28;20622;-51
2023/03/17 12:49:49;;;;;;;3.00;2.42;;;;;;;;;;5061954;28;20223;-53
2023/03/17 12:52:25;;;;;;;3.45;2.33;;;;;;;;;;5058659;28;20259;-52
2023/03/17 12:54:52;;;;;;;3.42;2.50;;;;;;;;;;5062022;28;20250;-52
2023/03/17 12:57:20;;;;;;;2.95;2.35;;;;;;;;;;5060828;28;20701;-53
2023/03/17 12:59:49;;;;;;;8.73;2.22;;;;;;;;;;5060963;28;20314;-51
2023/03/17 13:02:18;;;;;;;2.97;2.58;;;;;;;;;;5058998;28;20234;-52
2023/03/17 13:04:49;;;;;;;3.40;2.30;;;;;;;;;;5064674;28;20254;-52
2023/03/17 13:07:17;;;;;;;3.05;2.30;;;;;;;;;;5066866;28;20264;-52
2023/03/17 13:09:46;;;;;;;4.55;2.83;;;;;;;;;;5059211;28;20312;-54
2023/03/17 13:12:30;;;;;;;2.83;1.95;;;;;;;;;;5063988;28;20235;-58
2023/03/17 13:14:58;;;;;;;3.25;2.20;;;;;;;;;;5068022;28;20254;-52
2023/03/17 13:17:33;;;;;;;2.63;2.40;;;;;;;;;;5065510;28;20234;-52
2023/03/17 13:20:10;;;;;;;5.55;2.33;;;;;;;;;;5059679;28;20329;-53
2023/03/17 13:22:38;;;;;;;2.58;2.20;;;;;;;;;;5060773;28;20239;-53
2023/03/17 13:25:15;;;;;;;4.68;2.15;;;;;;;;;;5063921;28;20235;-52
2023/03/17 13:27:42;;;;;;;4.45;2.78;;;;;;;;;;5054388;28;20223;-53
2023/03/17 13:30:27;;;;;;;2.40;2.00;;;;;;;;;;5055704;28;20245;-52
2023/03/17 13:32:58;;;;;;;2.30;2.10;;;;;;;;;;5060993;28;20238;-52
2023/03/17 13:35:37;;;;;;;4.53;2.28;;;;;;;;;;5068372;28;20479;-53
2023/03/17 13:38:34;;;;;;;3.70;2.78;;;;;;;;;;5066170;28;20237;-51
2023/03/17 13:41:11;;;;;;;9.00;2.88;;;;;;;;;;5061538;28;20237;-52
2023/03/17 13:43:45;;;;;;;2.72;2.17;;;;;;;;;;5057912;28;20231;-51
2023/03/17 13:46:19;;;;;;;2.83;2.60;;;;;;;;;;5067038;28;20246;-52
2023/03/17 13:48:47;;;;;;;10.55;2.28;;;;;;;;;;5059835;28;20227;-53
2023/03/17 13:51:17;;;;;;;7.15;2.50;;;;;;;;;;5064893;28;20341;-53
2023/03/17 13:53:45;;;;;;;2.60;2.13;;;;;;;;;;5061673;28;20343;-54
2023/03/17 13:56:17;;;;;;;2.53;2.30;;;;;;;;;;5064143;28;20314;-53
2023/03/17 13:59:05;;;;;;;4.95;1.98;;;;;;;;;;5058117;28;20238;-52
2023/03/17 14:01:35;;;;;;;3.10;2.30;;;;;;;;;;5057382;28;20265;-54
2023/03/17 14:04:06;;;;;;;2.40;2.13;;;;;;;;;;5064344;28;20235;-52
2023/03/17 14:06:36;;;;;;;2.78;2.20;;;;;;;;;;5065662;28;20249;-53
2023/03/17 14:09:08;;;;;;;3.17;2.60;;;;;;;;;;5061392;28;20238;-52
2023/03/17 14:11:35;;;;;;;4.88;2.45;;;;;;;;;;5056679;28;20243;-52
2023/03/17 14:14:17;;;;;;;2.78;2.47;;;;;;;;;;5060689;28;20238;-53
2023/03/17 14:16:45;;;;;;;5.95;2.40;;;;;;;;;;5059280;28;20227;-53
2023/03/17 14:19:17;;;;;;;5.90;2.95;;;;;;;;;;5060495;28;20371;-54
2023/03/17 14:21:44;;;;;;;3.47;2.20;;;;;;;;;;5064626;28;20237;-52
2023/03/17 14:24:21;;;;;;;3.70;2.45;;;;;;;;;;5065596;28;20245;-54
2023/03/17 14:26:49;;;;;;;3.75;2.00;;;;;;;;;;5064899;28;20234;-54
2023/03/17 14:29:16;;;;;;;3.03;1.88;;;;;;;;;;5064564;28;20310;-52
2023/03/17 14:31:46;;;;;;;5.53;2.70;;;;;;;;;;5063535;28;20254;-52
2023/03/17 14:34:14;;;;;;;3.35;2.35;;;;;;;;;;5058512;28;20692;-52
2023/03/17 14:36:41;;;;;;;3.50;2.17;;;;;;;;;;5063749;28;20223;-52
2023/03/17 14:39:08;;;;;;;3.78;2.33;;;;;;;;;;5060064;28;20227;-52
2023/03/17 14:41:34;;;;;;;4.57;2.38;;;;;;;;;;5065489;28;20235;-52
2023/03/17 14:44:01;;;;;;;3.20;2.20;;;;;;;;;;5063331;28;20231;-52
2023/03/17 14:46:30;;;;;;;3.78;2.30;;;;;;;;;;5061290;28;20223;-53
2023/03/17 14:48:58;;;;;;;3.38;2.10;;;;;;;;;;5062422;28;20344;-52
2023/03/17 14:51:28;;;;;;;2.58;2.08;;;;;;;;;;5056196;28;20314;-51